• Join FlightAware (Why Join?)
  • Login
  • US Flag 
06:18AM EST


 

Airport Tracker/Info


-or-


 

Live Flight TrackerFlight Track Log ✈ EGF4383 ✈ 02-May-2013 ✈ KCHO - KORD

Flight Track Log - Related Links

Times and Time Zones

All times are in EDT time to prevent confusion due to time zone crossing. See the EGF4383 flight status page for this flight to view local times or setup timezone preferences in your user account.

Time Position Orientation Groundspeed Altitude Reporting Facility
EDT Latitude Longitude Course Direction KTS MPH feet Rate Location/Type
04:54PM 38.1833 -78.4333 294° West 182 209 2,300  Level Potomac TRACON
04:54PM 38.2250 -78.4436 349° North 226 260 4,700 2,017 Climbing Washington Center
04:56PM 38.2552 -78.7954 299° West  Level FlightAware Approximate
04:56PM 38.2544 -78.5161 297° West 231 266 6,200  Level Washington Center
04:56PM 38.2853 -78.6125 292° West 268 308 8,700 2,319 Climbing Washington Center
04:57PM 38.3033 -78.9080 298° West  Level FlightAware Approximate
04:57PM 38.3164 -78.7064 293° West 282 325 10,800  Level Washington Center
04:58PM 38.3506 -79.0213 298° West  Level FlightAware Approximate
04:59PM 38.3961 -79.1359 294° West  Level FlightAware Approximate
04:59PM 38.3533 -78.8061 295° West 294 338 12,200  Level Washington Center
04:59PM 38.3861 -78.9081 292° West 328 377 13,900 1,664 Climbing Washington Center
05:00PM 38.4225 -79.0211 292° West 341 392 15,500 1,686 Climbing Washington Center
05:01PM 38.4667 -79.1478 294° West 346 398 17,300 1,438 Climbing Washington Center
05:03PM 38.5072 -79.2611 295° West 351 404 18,400 1,339 Climbing Washington Center
05:04PM 38.5450 -79.3825 292° West 357 411 20,000 1,576 Climbing Washington Center
05:04PM 38.5872 -79.5014 294° West 362 417 21,500 1,513 Climbing Washington Center
05:05PM 38.6231 -79.6150 292° West 367 422 23,000 1,475 Climbing Washington Center
05:07PM 38.6628 -79.7367 293° West 372 428 24,500 1,388 Climbing Washington Center
05:08PM 38.7042 -79.8614 293° West 377 434 25,800 1,388 Climbing Washington Center
05:09PM 38.7492 -79.9972 293° West 383 441 27,300 1,381 Climbing Washington Center
05:10PM 38.7903 -80.1261 292° West 385 443 28,700 1,276 Climbing Indianapolis Center
05:11PM 38.8319 -80.2497 293° West 379 436 30,000 1,113 Climbing Indianapolis Center
05:12PM 38.8714 -80.3753 292° West 381 438 31,000 968 Climbing Indianapolis Center
05:13PM 38.9231 -80.5294 293° West 391 450 32,000 1,056 Climbing Indianapolis Center
05:14PM 38.9664 -80.6633 293° West 407 468 33,200 1,248 Climbing Indianapolis Center
05:15PM 39.0078 -80.7933 292° West 398 458 34,600 1,161 Climbing Indianapolis Center
05:16PM 39.0558 -80.9167 297° West 391 450 35,600 677 Climbing Indianapolis Center
05:17PM 39.1078 -81.0389 299° West 390 449 36,000 194 Climbing Indianapolis Center
05:18PM 39.1686 -81.1658 302° West 416 479 36,000  Level Indianapolis Center
05:19PM 39.2425 -81.3203 302° West 425 489 36,000  Level Indianapolis Center
05:20PM 39.3039 -81.4486 302° West 423 487 36,000  Level Indianapolis Center
05:21PM 39.3658 -81.5789 302° West 428 493 36,000  Level Indianapolis Center
05:22PM 39.4286 -81.7114 302° West 432 497 36,000  Level Indianapolis Center
05:23PM 39.4917 -81.8450 301° West 436 502 36,000  Level Indianapolis Center
05:24PM 39.5669 -82.0058 301° West 437 503 36,000  Level Indianapolis Center
05:25PM 39.6292 -82.1386 301° West 438 504 36,000  Level Indianapolis Center
05:26PM 39.7108 -82.2589 311° West 450 518 36,000  Level Indianapolis Center
05:27PM 39.7981 -82.3700 316° Northwest 440 506 36,000  Level Indianapolis Center
05:28PM 39.8861 -82.4814 316° Northwest 439 505 36,000  Level Indianapolis Center
05:29PM 39.9750 -82.5925 316° Northwest 440 506 36,000  Level Indianapolis Center
05:30PM 40.0908 -82.7028 324° Northwest 441 507 36,000 -48 Level Indianapolis Center
05:31PM 40.1931 -82.7944 326° Northwest 444 511 35,900  Descending Indianapolis Center
05:32PM 40.2586 -82.9286 303° West 437 503 36,000 48 Climbing Indianapolis Center
05:33PM 40.3056 -83.0753 293° West 436 502 36,000  Level Indianapolis Center
05:34PM 40.3528 -83.2208 293° West 434 499 36,000  Level Indianapolis Center
05:35PM 40.4100 -83.3917 294° West 437 503 36,000  Level Indianapolis Center
05:37PM 40.4572 -83.5397 293° West 439 505 36,000  Level Indianapolis Center
05:38PM 40.5061 -83.6867 294° West 438 504 36,000  Level Indianapolis Center
05:39PM 40.5533 -83.8358 293° West 438 504 36,000  Level Indianapolis Center
05:40PM 40.6014 -83.9847 293° West 440 506 36,000  Level Indianapolis Center
05:41PM 40.6486 -84.1358 292° West 442 509 36,000 -581 Level Indianapolis Center
05:42PM 40.6956 -84.2856 293° West 441 507 34,800 -968 Descending Indianapolis Center
05:43PM 40.7506 -84.4581 293° West 437 503 34,000 -552 Descending Indianapolis Center
05:43PM 40.7642 -84.4958 295° West 436 502 34,000  Level Chicago Center
05:44PM 40.8114 -84.6417 293° West 433 498 34,000 -97 Level Chicago Center
05:45PM 40.8664 -84.8200 292° West 435 501 33,800 -532 Descending Chicago Center
05:46PM 40.9122 -84.9697 292° West 437 503 32,900 -871 Descending Chicago Center
05:47PM 40.9586 -85.1233 292° West 445 512 32,000 -435 Descending Chicago Center
05:48PM 41.0294 -85.2603 304° West 457 526 32,000  Level Chicago Center
05:49PM 41.1297 -85.3631 322° Northwest 457 526 32,000 -629 Level Chicago Center
05:50PM 41.2122 -85.4731 315° West 435 501 30,700 -1,790 Descending Chicago Center
05:51PM 41.2389 -85.6144 284° West 400 460 28,300 -2,323 Descending Chicago Center
05:52PM 41.2567 -85.7992 277° West 417 480 25,900 -1,920 Descending Chicago Center
05:53PM 41.2747 -85.9603 279° West 436 502 24,300 -912 Descending Chicago Center
05:55PM 41.3019 -86.1161 283° West 434 499 24,000 -145 Descending Chicago Center
05:56PM 41.3406 -86.2669 289° West 429 494 24,000 -919 Level Chicago Center
05:57PM 41.3786 -86.4208 288° West 435 501 22,100 -2,081 Descending Chicago Center
05:58PM 41.4181 -86.5736 289° West 436 502 19,700 -2,371 Descending Chicago Center
05:59PM 41.4600 -86.7439 288° West 422 486 17,200 -2,129 Descending Chicago Center
06:00PM 41.4936 -86.8764 289° West 386 444 15,300 -1,694 Descending Chicago Center
06:01PM 41.5244 -87.0056 288° West 369 425 13,700 -1,424 Descending Chicago Center
06:02PM 41.5500 -87.1500 283° West 365 420 12,500 -927 Descending Chicago TRACON
06:03PM 41.5833 -87.2667 291° West 368 423 12,000 -684 Descending Chicago TRACON
06:04PM 41.6500 -87.3667 312° West 365 420 11,200 -711 Descending Chicago TRACON
06:04PM 41.6683 -87.3856 322° Northwest 369 425 11,100 -911 Descending Chicago Center
06:05PM 41.7253 -87.4750 310° West 325 374 10,000 -1,488 Descending Chicago Center
06:06PM 41.7756 -87.5572 309° West 293 337 8,000 -1,452 Descending Chicago Center
06:07PM 41.8183 -87.6650 298° West 290 334 7,000 -645 Descending Chicago Center
06:07PM 41.8167 -87.7167 268° West 278 320 7,000 -198 Level Chicago TRACON
06:08PM 41.8167 -87.8000 270° West 239 275 6,700 -895 Descending Chicago TRACON
06:09PM 41.8167 -87.8833 270° West 233 268 5,300 -1,263 Descending Chicago TRACON
06:10PM 41.8025 -87.9292 247° West 236 272 4,700 -757 Descending Chicago Center
06:11PM 41.7725 -87.9889 236° Southwest 211 243 4,000 -484 Descending Chicago Center
06:12PM 41.8200 -88.0258 330° Northwest 207 238 3,700 -290 Descending Chicago Center